sensor_id;sensor_type;location;lat;lon;timestamp;P1;durP1;ratioP1;P2;durP2;ratioP2
32172;SDS011;18679;45.190;5.722;2023-03-31T00:00:37;12.38;;;3.40;;
32172;SDS011;18679;45.190;5.722;2023-03-31T00:03:38;12.10;;;3.60;;
32172;SDS011;18679;45.190;5.722;2023-03-31T00:06:42;11.10;;;3.50;;
32172;SDS011;18679;45.190;5.722;2023-03-31T00:09:44;8.45;;;3.72;;
32172;SDS011;18679;45.190;5.722;2023-03-31T00:12:45;8.30;;;3.08;;
32172;SDS011;18679;45.190;5.722;2023-03-31T00:15:46;9.38;;;3.78;;
32172;SDS011;18679;45.190;5.722;2023-03-31T00:18:47;15.00;;;3.50;;
32172;SDS011;18679;45.190;5.722;2023-03-31T00:21:50;11.25;;;4.13;;
32172;SDS011;18679;45.190;5.722;2023-03-31T00:24:50;11.50;;;4.25;;
32172;SDS011;18679;45.190;5.722;2023-03-31T00:27:51;14.73;;;4.45;;
32172;SDS011;18679;45.190;5.722;2023-03-31T00:30:52;14.80;;;3.65;;
32172;SDS011;18679;45.190;5.722;2023-03-31T00:34:00;7.83;;;3.70;;
32172;SDS011;18679;45.190;5.722;2023-03-31T00:37:01;9.85;;;3.90;;
32172;SDS011;18679;45.190;5.722;2023-03-31T00:40:02;6.28;;;3.88;;
32172;SDS011;18679;45.190;5.722;2023-03-31T00:43:08;10.93;;;3.58;;
32172;SDS011;18679;45.190;5.722;2023-03-31T00:46:29;12.05;;;4.47;;
32172;SDS011;18679;45.190;5.722;2023-03-31T00:49:53;14.30;;;3.78;;
32172;SDS011;18679;45.190;5.722;2023-03-31T00:53:15;9.18;;;3.47;;
32172;SDS011;18679;45.190;5.722;2023-03-31T00:56:17;13.32;;;3.95;;
32172;SDS011;18679;45.190;5.722;2023-03-31T00:59:18;15.85;;;3.42;;
32172;SDS011;18679;45.190;5.722;2023-03-31T01:02:23;6.20;;;2.95;;
32172;SDS011;18679;45.190;5.722;2023-03-31T01:05:26;14.85;;;3.72;;
32172;SDS011;18679;45.190;5.722;2023-03-31T01:08:31;12.50;;;3.45;;
32172;SDS011;18679;45.190;5.722;2023-03-31T01:11:35;19.08;;;3.75;;
32172;SDS011;18679;45.190;5.722;2023-03-31T01:14:36;7.90;;;3.45;;
32172;SDS011;18679;45.190;5.722;2023-03-31T01:17:37;8.13;;;3.22;;
32172;SDS011;18679;45.190;5.722;2023-03-31T01:47:51;7.50;;;3.70;;
32172;SDS011;18679;45.190;5.722;2023-03-31T01:51:02;7.13;;;3.55;;
32172;SDS011;18679;45.190;5.722;2023-03-31T01:54:22;10.38;;;3.97;;
32172;SDS011;18679;45.190;5.722;2023-03-31T01:57:39;8.05;;;3.70;;
32172;SDS011;18679;45.190;5.722;2023-03-31T02:00:47;8.95;;;3.60;;
32172;SDS011;18679;45.190;5.722;2023-03-31T02:03:57;12.73;;;3.20;;
32172;SDS011;18679;45.190;5.722;2023-03-31T02:07:19;12.20;;;3.55;;
32172;SDS011;18679;45.190;5.722;2023-03-31T02:10:28;11.45;;;3.97;;
32172;SDS011;18679;45.190;5.722;2023-03-31T02:13:31;10.55;;;3.95;;
32172;SDS011;18679;45.190;5.722;2023-03-31T02:16:37;10.20;;;3.97;;
32172;SDS011;18679;45.190;5.722;2023-03-31T02:19:48;13.38;;;3.58;;
32172;SDS011;18679;45.190;5.722;2023-03-31T02:22:53;15.27;;;4.45;;
32172;SDS011;18679;45.190;5.722;2023-03-31T02:26:03;9.25;;;3.88;;
32172;SDS011;18679;45.190;5.722;2023-03-31T02:29:11;11.82;;;3.40;;
32172;SDS011;18679;45.190;5.722;2023-03-31T02:32:14;12.57;;;3.42;;
32172;SDS011;18679;45.190;5.722;2023-03-31T02:35:26;21.27;;;4.47;;
32172;SDS011;18679;45.190;5.722;2023-03-31T02:38:31;20.20;;;4.32;;
32172;SDS011;18679;45.190;5.722;2023-03-31T02:41:38;10.05;;;3.55;;
32172;SDS011;18679;45.190;5.722;2023-03-31T02:44:39;10.95;;;3.28;;
32172;SDS011;18679;45.190;5.722;2023-03-31T02:47:40;13.48;;;3.72;;
32172;SDS011;18679;45.190;5.722;2023-03-31T03:00:59;14.73;;;3.42;;
32172;SDS011;18679;45.190;5.722;2023-03-31T03:07:44;9.85;;;3.28;;
32172;SDS011;18679;45.190;5.722;2023-03-31T03:17:22;9.70;;;4.00;;
32172;SDS011;18679;45.190;5.722;2023-03-31T03:20:31;10.55;;;3.95;;
32172;SDS011;18679;45.190;5.722;2023-03-31T03:23:33;10.35;;;3.92;;
32172;SDS011;18679;45.190;5.722;2023-03-31T03:26:34;24.10;;;4.65;;
32172;SDS011;18679;45.190;5.722;2023-03-31T03:29:34;8.85;;;3.90;;
32172;SDS011;18679;45.190;5.722;2023-03-31T03:32:35;12.70;;;3.80;;
32172;SDS011;18679;45.190;5.722;2023-03-31T03:35:36;11.98;;;3.55;;
32172;SDS011;18679;45.190;5.722;2023-03-31T03:38:37;8.75;;;3.38;;
32172;SDS011;18679;45.190;5.722;2023-03-31T03:41:38;18.35;;;3.90;;
32172;SDS011;18679;45.190;5.722;2023-03-31T03:44:39;15.35;;;4.10;;
32172;SDS011;18679;45.190;5.722;2023-03-31T03:47:40;17.05;;;3.90;;
32172;SDS011;18679;45.190;5.722;2023-03-31T03:50:40;6.93;;;3.42;;
32172;SDS011;18679;45.190;5.722;2023-03-31T03:53:41;11.32;;;3.72;;
32172;SDS011;18679;45.190;5.722;2023-03-31T03:56:42;14.60;;;3.63;;
32172;SDS011;18679;45.190;5.722;2023-03-31T03:59:43;8.65;;;3.28;;
32172;SDS011;18679;45.190;5.722;2023-03-31T04:02:44;8.90;;;3.03;;
32172;SDS011;18679;45.190;5.722;2023-03-31T04:05:47;11.30;;;2.95;;
32172;SDS011;18679;45.190;5.722;2023-03-31T04:08:50;7.10;;;3.55;;
32172;SDS011;18679;45.190;5.722;2023-03-31T04:11:51;15.13;;;3.47;;
32172;SDS011;18679;45.190;5.722;2023-03-31T04:14:52;9.18;;;3.15;;
32172;SDS011;18679;45.190;5.722;2023-03-31T04:17:53;7.93;;;2.85;;
32172;SDS011;18679;45.190;5.722;2023-03-31T04:20:57;12.50;;;4.00;;
32172;SDS011;18679;45.190;5.722;2023-03-31T04:24:04;12.25;;;3.05;;
32172;SDS011;18679;45.190;5.722;2023-03-31T04:27:05;17.77;;;3.40;;
32172;SDS011;18679;45.190;5.722;2023-03-31T04:30:09;7.57;;;2.92;;
32172;SDS011;18679;45.190;5.722;2023-03-31T04:33:11;10.00;;;3.55;;
32172;SDS011;18679;45.190;5.722;2023-03-31T04:36:14;11.90;;;3.40;;
32172;SDS011;18679;45.190;5.722;2023-03-31T04:39:18;13.52;;;3.38;;
32172;SDS011;18679;45.190;5.722;2023-03-31T04:42:26;9.47;;;2.90;;
32172;SDS011;18679;45.190;5.722;2023-03-31T04:45:26;13.88;;;2.63;;
32172;SDS011;18679;45.190;5.722;2023-03-31T04:48:27;7.30;;;3.15;;
32172;SDS011;18679;45.190;5.722;2023-03-31T04:51:28;13.23;;;3.83;;
32172;SDS011;18679;45.190;5.722;2023-03-31T04:54:29;9.98;;;3.60;;
32172;SDS011;18679;45.190;5.722;2023-03-31T04:57:30;10.98;;;3.85;;
32172;SDS011;18679;45.190;5.722;2023-03-31T05:00:31;13.80;;;3.58;;
32172;SDS011;18679;45.190;5.722;2023-03-31T05:03:32;5.50;;;1.60;;
32172;SDS011;18679;45.190;5.722;2023-03-31T05:06:33;6.97;;;2.63;;
32172;SDS011;18679;45.190;5.722;2023-03-31T05:09:34;6.70;;;2.00;;
32172;SDS011;18679;45.190;5.722;2023-03-31T05:12:35;16.00;;;2.20;;
32172;SDS011;18679;45.190;5.722;2023-03-31T05:15:37;9.45;;;2.40;;
32172;SDS011;18679;45.190;5.722;2023-03-31T05:18:39;12.98;;;1.75;;
32172;SDS011;18679;45.190;5.722;2023-03-31T05:21:40;4.63;;;1.80;;
32172;SDS011;18679;45.190;5.722;2023-03-31T05:24:41;3.28;;;1.55;;
32172;SDS011;18679;45.190;5.722;2023-03-31T05:27:41;8.43;;;2.00;;
32172;SDS011;18679;45.190;5.722;2023-03-31T05:30:43;6.60;;;2.00;;
32172;SDS011;18679;45.190;5.722;2023-03-31T05:33:44;6.75;;;1.63;;
32172;SDS011;18679;45.190;5.722;2023-03-31T05:36:45;6.63;;;2.20;;
32172;SDS011;18679;45.190;5.722;2023-03-31T05:39:47;11.43;;;2.45;;
32172;SDS011;18679;45.190;5.722;2023-03-31T05:42:48;12.85;;;1.75;;
32172;SDS011;18679;45.190;5.722;2023-03-31T05:45:49;8.15;;;1.77;;
32172;SDS011;18679;45.190;5.722;2023-03-31T05:48:50;9.52;;;1.70;;
32172;SDS011;18679;45.190;5.722;2023-03-31T05:51:51;5.82;;;2.17;;
32172;SDS011;18679;45.190;5.722;2023-03-31T05:54:52;6.03;;;1.65;;
32172;SDS011;18679;45.190;5.722;2023-03-31T05:57:53;11.18;;;2.00;;
32172;SDS011;18679;45.190;5.722;2023-03-31T06:01:03;7.25;;;1.90;;
32172;SDS011;18679;45.190;5.722;2023-03-31T06:04:10;20.95;;;1.77;;
32172;SDS011;18679;45.190;5.722;2023-03-31T06:07:11;14.60;;;2.25;;
32172;SDS011;18679;45.190;5.722;2023-03-31T06:10:12;7.85;;;1.83;;
32172;SDS011;18679;45.190;5.722;2023-03-31T06:13:13;5.28;;;2.10;;
32172;SDS011;18679;45.190;5.722;2023-03-31T06:16:14;9.15;;;1.58;;
32172;SDS011;18679;45.190;5.722;2023-03-31T06:19:16;13.82;;;2.33;;
32172;SDS011;18679;45.190;5.722;2023-03-31T06:22:17;7.90;;;1.95;;
32172;SDS011;18679;45.190;5.722;2023-03-31T06:25:18;11.43;;;2.65;;
32172;SDS011;18679;45.190;5.722;2023-03-31T06:28:19;11.55;;;2.25;;
32172;SDS011;18679;45.190;5.722;2023-03-31T06:31:22;16.73;;;2.67;;
32172;SDS011;18679;45.190;5.722;2023-03-31T06:34:24;7.00;;;2.08;;
32172;SDS011;18679;45.190;5.722;2023-03-31T06:37:24;9.70;;;2.08;;
32172;SDS011;18679;45.190;5.722;2023-03-31T06:40:25;9.55;;;2.40;;
32172;SDS011;18679;45.190;5.722;2023-03-31T06:43:26;13.18;;;2.80;;
32172;SDS011;18679;45.190;5.722;2023-03-31T06:46:27;10.55;;;2.63;;
32172;SDS011;18679;45.190;5.722;2023-03-31T06:49:28;10.02;;;1.95;;
32172;SDS011;18679;45.190;5.722;2023-03-31T06:52:30;10.88;;;2.22;;
32172;SDS011;18679;45.190;5.722;2023-03-31T06:55:31;9.50;;;2.20;;
32172;SDS011;18679;45.190;5.722;2023-03-31T06:58:33;12.02;;;2.25;;
32172;SDS011;18679;45.190;5.722;2023-03-31T07:01:33;11.52;;;2.53;;
32172;SDS011;18679;45.190;5.722;2023-03-31T07:04:36;7.10;;;2.75;;
32172;SDS011;18679;45.190;5.722;2023-03-31T07:07:37;8.30;;;2.30;;
32172;SDS011;18679;45.190;5.722;2023-03-31T07:10:38;12.20;;;3.20;;
32172;SDS011;18679;45.190;5.722;2023-03-31T07:13:39;4.60;;;2.83;;
32172;SDS011;18679;45.190;5.722;2023-03-31T07:16:40;10.23;;;2.70;;
32172;SDS011;18679;45.190;5.722;2023-03-31T07:19:42;12.77;;;3.22;;
32172;SDS011;18679;45.190;5.722;2023-03-31T07:22:47;5.10;;;2.50;;
32172;SDS011;18679;45.190;5.722;2023-03-31T07:25:48;12.88;;;3.15;;
32172;SDS011;18679;45.190;5.722;2023-03-31T07:28:49;13.60;;;3.17;;
32172;SDS011;18679;45.190;5.722;2023-03-31T07:31:51;11.18;;;2.78;;
32172;SDS011;18679;45.190;5.722;2023-03-31T07:34:52;9.93;;;3.13;;
32172;SDS011;18679;45.190;5.722;2023-03-31T07:37:52;10.00;;;2.95;;
32172;SDS011;18679;45.190;5.722;2023-03-31T07:40:53;18.50;;;4.25;;
32172;SDS011;18679;45.190;5.722;2023-03-31T07:43:54;8.30;;;3.15;;
32172;SDS011;18679;45.190;5.722;2023-03-31T07:46:56;14.13;;;4.15;;
32172;SDS011;18679;45.190;5.722;2023-03-31T07:49:58;17.13;;;4.28;;
32172;SDS011;18679;45.190;5.722;2023-03-31T07:52:59;11.43;;;4.25;;
32172;SDS011;18679;45.190;5.722;2023-03-31T07:56:00;15.07;;;4.07;;
32172;SDS011;18679;45.190;5.722;2023-03-31T07:59:00;18.98;;;4.22;;
32172;SDS011;18679;45.190;5.722;2023-03-31T08:02:01;15.20;;;4.20;;
32172;SDS011;18679;45.190;5.722;2023-03-31T08:05:03;15.50;;;5.10;;
32172;SDS011;18679;45.190;5.722;2023-03-31T08:08:05;18.13;;;4.55;;
32172;SDS011;18679;45.190;5.722;2023-03-31T08:11:06;13.98;;;4.50;;
32172;SDS011;18679;45.190;5.722;2023-03-31T08:14:07;20.50;;;5.32;;
32172;SDS011;18679;45.190;5.722;2023-03-31T08:17:08;21.23;;;5.10;;
32172;SDS011;18679;45.190;5.722;2023-03-31T08:20:10;13.93;;;5.15;;
32172;SDS011;18679;45.190;5.722;2023-03-31T08:23:12;15.35;;;5.95;;
32172;SDS011;18679;45.190;5.722;2023-03-31T08:26:14;13.32;;;5.95;;
32172;SDS011;18679;45.190;5.722;2023-03-31T08:29:21;13.13;;;5.95;;
32172;SDS011;18679;45.190;5.722;2023-03-31T08:32:22;28.35;;;6.03;;
32172;SDS011;18679;45.190;5.722;2023-03-31T08:35:23;20.15;;;7.50;;
32172;SDS011;18679;45.190;5.722;2023-03-31T08:38:24;15.73;;;6.18;;
32172;SDS011;18679;45.190;5.722;2023-03-31T08:44:34;20.30;;;6.35;;
32172;SDS011;18679;45.190;5.722;2023-03-31T08:47:36;17.15;;;6.57;;
32172;SDS011;18679;45.190;5.722;2023-03-31T08:50:39;14.30;;;6.35;;
32172;SDS011;18679;45.190;5.722;2023-03-31T08:56:52;13.68;;;5.88;;
32172;SDS011;18679;45.190;5.722;2023-03-31T08:59:53;12.13;;;5.10;;
32172;SDS011;18679;45.190;5.722;2023-03-31T09:06:34;19.17;;;7.22;;
32172;SDS011;18679;45.190;5.722;2023-03-31T09:09:44;14.77;;;5.88;;
32172;SDS011;18679;45.190;5.722;2023-03-31T09:13:06;14.27;;;6.15;;
32172;SDS011;18679;45.190;5.722;2023-03-31T09:26:23;18.92;;;6.75;;
32172;SDS011;18679;45.190;5.722;2023-03-31T09:29:55;19.02;;;6.97;;
32172;SDS011;18679;45.190;5.722;2023-03-31T09:33:10;19.48;;;8.43;;
32172;SDS011;18679;45.190;5.722;2023-03-31T09:36:18;13.98;;;7.00;;
32172;SDS011;18679;45.190;5.722;2023-03-31T09:39:23;19.77;;;8.48;;
32172;SDS011;18679;45.190;5.722;2023-03-31T09:42:24;28.50;;;7.43;;
32172;SDS011;18679;45.190;5.722;2023-03-31T09:45:25;24.75;;;7.95;;
32172;SDS011;18679;45.190;5.722;2023-03-31T09:48:32;19.10;;;7.38;;
32172;SDS011;18679;45.190;5.722;2023-03-31T09:51:35;22.23;;;7.20;;
32172;SDS011;18679;45.190;5.722;2023-03-31T09:54:42;24.13;;;7.28;;
32172;SDS011;18679;45.190;5.722;2023-03-31T09:57:50;16.95;;;8.27;;
32172;SDS011;18679;45.190;5.722;2023-03-31T10:01:10;13.10;;;6.53;;
32172;SDS011;18679;45.190;5.722;2023-03-31T10:04:23;21.38;;;8.85;;
32172;SDS011;18679;45.190;5.722;2023-03-31T10:07:27;22.42;;;9.35;;
32172;SDS011;18679;45.190;5.722;2023-03-31T10:10:30;21.05;;;7.63;;
32172;SDS011;18679;45.190;5.722;2023-03-31T10:16:55;17.70;;;7.78;;
32172;SDS011;18679;45.190;5.722;2023-03-31T10:19:57;19.15;;;7.35;;
32172;SDS011;18679;45.190;5.722;2023-03-31T10:23:23;29.17;;;7.85;;
32172;SDS011;18679;45.190;5.722;2023-03-31T10:26:28;28.17;;;8.23;;
32172;SDS011;18679;45.190;5.722;2023-03-31T10:29:30;17.55;;;6.93;;
32172;SDS011;18679;45.190;5.722;2023-03-31T10:32:33;20.77;;;7.22;;
32172;SDS011;18679;45.190;5.722;2023-03-31T10:35:42;15.77;;;6.82;;
32172;SDS011;18679;45.190;5.722;2023-03-31T10:38:43;17.15;;;7.40;;
32172;SDS011;18679;45.190;5.722;2023-03-31T10:41:49;15.57;;;6.68;;
32172;SDS011;18679;45.190;5.722;2023-03-31T10:45:08;16.42;;;7.63;;
32172;SDS011;18679;45.190;5.722;2023-03-31T10:48:38;21.02;;;7.50;;
32172;SDS011;18679;45.190;5.722;2023-03-31T10:51:47;16.05;;;6.70;;
32172;SDS011;18679;45.190;5.722;2023-03-31T10:54:54;13.43;;;5.93;;
32172;SDS011;18679;45.190;5.722;2023-03-31T10:58:33;13.30;;;6.43;;
32172;SDS011;18679;45.190;5.722;2023-03-31T11:14:49;9.90;;;4.50;;
32172;SDS011;18679;45.190;5.722;2023-03-31T11:28:30;11.25;;;4.95;;
32172;SDS011;18679;45.190;5.722;2023-03-31T11:41:50;10.27;;;4.82;;
32172;SDS011;18679;45.190;5.722;2023-03-31T11:45:01;18.10;;;5.47;;
32172;SDS011;18679;45.190;5.722;2023-03-31T11:48:15;11.35;;;5.03;;
32172;SDS011;18679;45.190;5.722;2023-03-31T11:54:30;10.95;;;4.50;;
32172;SDS011;18679;45.190;5.722;2023-03-31T12:00:40;11.77;;;5.00;;
32172;SDS011;18679;45.190;5.722;2023-03-31T12:07:28;10.10;;;3.83;;
32172;SDS011;18679;45.190;5.722;2023-03-31T12:10:36;7.85;;;3.53;;
32172;SDS011;18679;45.190;5.722;2023-03-31T12:13:51;7.72;;;3.88;;
32172;SDS011;18679;45.190;5.722;2023-03-31T12:16:57;5.63;;;3.05;;
32172;SDS011;18679;45.190;5.722;2023-03-31T12:20:23;8.55;;;4.07;;
32172;SDS011;18679;45.190;5.722;2023-03-31T12:23:33;11.60;;;3.40;;
32172;SDS011;18679;45.190;5.722;2023-03-31T12:29:56;10.75;;;3.75;;
32172;SDS011;18679;45.190;5.722;2023-03-31T12:36:20;5.78;;;3.40;;
32172;SDS011;18679;45.190;5.722;2023-03-31T13:09:47;6.90;;;3.45;;
32172;SDS011;18679;45.190;5.722;2023-03-31T13:13:02;9.18;;;3.63;;
32172;SDS011;18679;45.190;5.722;2023-03-31T13:16:17;7.15;;;2.97;;
32172;SDS011;18679;45.190;5.722;2023-03-31T13:19:32;7.82;;;3.45;;
32172;SDS011;18679;45.190;5.722;2023-03-31T13:22:35;7.45;;;3.58;;
32172;SDS011;18679;45.190;5.722;2023-03-31T13:25:43;8.55;;;3.67;;
32172;SDS011;18679;45.190;5.722;2023-03-31T13:32:21;3.83;;;2.70;;
32172;SDS011;18679;45.190;5.722;2023-03-31T13:35:26;9.05;;;3.40;;
32172;SDS011;18679;45.190;5.722;2023-03-31T13:51:59;6.15;;;2.78;;
32172;SDS011;18679;45.190;5.722;2023-03-31T13:55:10;9.18;;;3.20;;
32172;SDS011;18679;45.190;5.722;2023-03-31T13:58:24;7.80;;;3.10;;
32172;SDS011;18679;45.190;5.722;2023-03-31T14:01:40;7.55;;;3.47;;
32172;SDS011;18679;45.190;5.722;2023-03-31T14:05:07;5.15;;;2.92;;
32172;SDS011;18679;45.190;5.722;2023-03-31T14:08:38;9.07;;;3.00;;
32172;SDS011;18679;45.190;5.722;2023-03-31T14:11:47;6.50;;;2.65;;
32172;SDS011;18679;45.190;5.722;2023-03-31T14:14:52;8.30;;;2.92;;
32172;SDS011;18679;45.190;5.722;2023-03-31T14:17:54;13.15;;;2.80;;
32172;SDS011;18679;45.190;5.722;2023-03-31T14:24:18;6.72;;;2.72;;
32172;SDS011;18679;45.190;5.722;2023-03-31T14:27:56;7.82;;;2.00;;
32172;SDS011;18679;45.190;5.722;2023-03-31T14:31:30;6.80;;;1.88;;
32172;SDS011;18679;45.190;5.722;2023-03-31T14:34:50;8.15;;;1.77;;
32172;SDS011;18679;45.190;5.722;2023-03-31T14:38:05;4.07;;;1.10;;
32172;SDS011;18679;45.190;5.722;2023-03-31T14:41:16;6.22;;;1.63;;
32172;SDS011;18679;45.190;5.722;2023-03-31T14:44:29;3.50;;;1.58;;
32172;SDS011;18679;45.190;5.722;2023-03-31T14:47:30;1.92;;;1.33;;
32172;SDS011;18679;45.190;5.722;2023-03-31T14:50:34;5.43;;;1.65;;
32172;SDS011;18679;45.190;5.722;2023-03-31T14:53:35;3.72;;;1.65;;
32172;SDS011;18679;45.190;5.722;2023-03-31T14:56:37;6.78;;;1.90;;
32172;SDS011;18679;45.190;5.722;2023-03-31T14:59:40;5.40;;;2.03;;
32172;SDS011;18679;45.190;5.722;2023-03-31T15:02:43;10.38;;;2.25;;
32172;SDS011;18679;45.190;5.722;2023-03-31T15:05:46;5.05;;;1.60;;
32172;SDS011;18679;45.190;5.722;2023-03-31T15:08:47;5.40;;;1.75;;
32172;SDS011;18679;45.190;5.722;2023-03-31T15:11:52;11.32;;;1.88;;
32172;SDS011;18679;45.190;5.722;2023-03-31T15:14:57;6.82;;;1.88;;
32172;SDS011;18679;45.190;5.722;2023-03-31T15:18:04;6.72;;;1.00;;
32172;SDS011;18679;45.190;5.722;2023-03-31T15:21:04;4.50;;;1.40;;
32172;SDS011;18679;45.190;5.722;2023-03-31T15:24:05;3.22;;;1.10;;
32172;SDS011;18679;45.190;5.722;2023-03-31T15:30:47;4.68;;;1.20;;
32172;SDS011;18679;45.190;5.722;2023-03-31T15:33:50;4.40;;;1.80;;
32172;SDS011;18679;45.190;5.722;2023-03-31T15:36:52;2.28;;;1.00;;
32172;SDS011;18679;45.190;5.722;2023-03-31T15:39:55;4.07;;;1.35;;
32172;SDS011;18679;45.190;5.722;2023-03-31T15:43:03;5.13;;;1.13;;
32172;SDS011;18679;45.190;5.722;2023-03-31T15:46:08;5.07;;;1.08;;
32172;SDS011;18679;45.190;5.722;2023-03-31T15:49:19;3.13;;;1.25;;
32172;SDS011;18679;45.190;5.722;2023-03-31T15:52:31;2.95;;;1.10;;
32172;SDS011;18679;45.190;5.722;2023-03-31T15:55:39;3.22;;;1.00;;
32172;SDS011;18679;45.190;5.722;2023-03-31T15:58:55;3.55;;;1.60;;
32172;SDS011;18679;45.190;5.722;2023-03-31T16:01:56;6.47;;;0.90;;
32172;SDS011;18679;45.190;5.722;2023-03-31T16:04:59;7.18;;;1.35;;
32172;SDS011;18679;45.190;5.722;2023-03-31T16:08:00;3.92;;;1.42;;
32172;SDS011;18679;45.190;5.722;2023-03-31T16:11:07;4.43;;;1.52;;
32172;SDS011;18679;45.190;5.722;2023-03-31T16:14:17;4.03;;;1.10;;
32172;SDS011;18679;45.190;5.722;2023-03-31T16:17:25;6.75;;;0.77;;
32172;SDS011;18679;45.190;5.722;2023-03-31T16:20:32;9.93;;;0.90;;
32172;SDS011;18679;45.190;5.722;2023-03-31T16:23:37;1.98;;;0.88;;
32172;SDS011;18679;45.190;5.722;2023-03-31T16:26:40;1.88;;;0.68;;
32172;SDS011;18679;45.190;5.722;2023-03-31T16:29:42;2.90;;;0.88;;
32172;SDS011;18679;45.190;5.722;2023-03-31T16:36:04;3.70;;;1.05;;
32172;SDS011;18679;45.190;5.722;2023-03-31T16:39:08;2.60;;;0.85;;
32172;SDS011;18679;45.190;5.722;2023-03-31T16:42:08;4.85;;;0.80;;
32172;SDS011;18679;45.190;5.722;2023-03-31T16:45:10;3.50;;;0.77;;
32172;SDS011;18679;45.190;5.722;2023-03-31T16:48:13;3.05;;;1.10;;
32172;SDS011;18679;45.190;5.722;2023-03-31T16:51:15;0.70;;;0.50;;
32172;SDS011;18679;45.190;5.722;2023-03-31T16:54:17;3.95;;;1.08;;
32172;SDS011;18679;45.190;5.722;2023-03-31T16:57:18;2.97;;;0.80;;
32172;SDS011;18679;45.190;5.722;2023-03-31T17:00:20;3.03;;;0.90;;
32172;SDS011;18679;45.190;5.722;2023-03-31T17:03:21;3.83;;;1.50;;
32172;SDS011;18679;45.190;5.722;2023-03-31T17:06:22;3.92;;;0.70;;
32172;SDS011;18679;45.190;5.722;2023-03-31T17:09:23;1.83;;;1.02;;
32172;SDS011;18679;45.190;5.722;2023-03-31T17:12:24;3.05;;;0.70;;
32172;SDS011;18679;45.190;5.722;2023-03-31T17:15:25;0.80;;;0.30;;
32172;SDS011;18679;45.190;5.722;2023-03-31T17:18:28;2.80;;;0.98;;
32172;SDS011;18679;45.190;5.722;2023-03-31T17:21:29;5.97;;;1.02;;
32172;SDS011;18679;45.190;5.722;2023-03-31T17:24:30;3.35;;;0.65;;
32172;SDS011;18679;45.190;5.722;2023-03-31T17:27:30;5.75;;;0.70;;
32172;SDS011;18679;45.190;5.722;2023-03-31T17:30:33;1.45;;;0.60;;
32172;SDS011;18679;45.190;5.722;2023-03-31T17:33:35;3.58;;;0.80;;
32172;SDS011;18679;45.190;5.722;2023-03-31T17:36:36;0.82;;;0.43;;
32172;SDS011;18679;45.190;5.722;2023-03-31T17:39:38;2.40;;;0.90;;
32172;SDS011;18679;45.190;5.722;2023-03-31T17:42:38;4.03;;;0.63;;
32172;SDS011;18679;45.190;5.722;2023-03-31T17:45:39;4.55;;;0.52;;
32172;SDS011;18679;45.190;5.722;2023-03-31T17:48:40;2.53;;;0.75;;
32172;SDS011;18679;45.190;5.722;2023-03-31T17:51:42;2.67;;;0.80;;
32172;SDS011;18679;45.190;5.722;2023-03-31T17:54:43;40.78;;;12.38;;
32172;SDS011;18679;45.190;5.722;2023-03-31T17:57:44;9.48;;;3.38;;
32172;SDS011;18679;45.190;5.722;2023-03-31T18:00:45;3.80;;;1.42;;
32172;SDS011;18679;45.190;5.722;2023-03-31T18:03:48;5.93;;;0.82;;
32172;SDS011;18679;45.190;5.722;2023-03-31T18:06:49;3.50;;;0.70;;
32172;SDS011;18679;45.190;5.722;2023-03-31T18:09:50;3.83;;;1.10;;
32172;SDS011;18679;45.190;5.722;2023-03-31T18:12:51;2.72;;;0.75;;
32172;SDS011;18679;45.190;5.722;2023-03-31T18:15:54;3.40;;;0.82;;
32172;SDS011;18679;45.190;5.722;2023-03-31T18:18:55;3.08;;;0.47;;
32172;SDS011;18679;45.190;5.722;2023-03-31T18:21:56;4.35;;;1.00;;
32172;SDS011;18679;45.190;5.722;2023-03-31T18:24:57;4.13;;;1.02;;
32172;SDS011;18679;45.190;5.722;2023-03-31T18:27:58;3.10;;;1.15;;
32172;SDS011;18679;45.190;5.722;2023-03-31T18:31:05;5.45;;;1.70;;
32172;SDS011;18679;45.190;5.722;2023-03-31T18:34:07;4.43;;;1.55;;
32172;SDS011;18679;45.190;5.722;2023-03-31T18:37:08;5.20;;;1.05;;
32172;SDS011;18679;45.190;5.722;2023-03-31T18:40:09;6.38;;;0.80;;
32172;SDS011;18679;45.190;5.722;2023-03-31T18:43:10;3.13;;;0.70;;
32172;SDS011;18679;45.190;5.722;2023-03-31T18:46:12;2.83;;;0.63;;
32172;SDS011;18679;45.190;5.722;2023-03-31T18:49:13;5.28;;;0.82;;
32172;SDS011;18679;45.190;5.722;2023-03-31T18:52:14;3.20;;;0.70;;
32172;SDS011;18679;45.190;5.722;2023-03-31T18:55:16;2.67;;;0.80;;
32172;SDS011;18679;45.190;5.722;2023-03-31T18:58:18;5.68;;;0.68;;
32172;SDS011;18679;45.190;5.722;2023-03-31T19:01:19;5.00;;;1.35;;
32172;SDS011;18679;45.190;5.722;2023-03-31T19:04:20;5.97;;;1.45;;
32172;SDS011;18679;45.190;5.722;2023-03-31T19:07:21;3.40;;;1.13;;
32172;SDS011;18679;45.190;5.722;2023-03-31T19:10:22;5.18;;;0.80;;
32172;SDS011;18679;45.190;5.722;2023-03-31T19:13:23;1.05;;;0.70;;
32172;SDS011;18679;45.190;5.722;2023-03-31T19:16:23;4.05;;;1.83;;
32172;SDS011;18679;45.190;5.722;2023-03-31T19:19:26;2.55;;;1.30;;
32172;SDS011;18679;45.190;5.722;2023-03-31T19:22:27;5.50;;;1.50;;
32172;SDS011;18679;45.190;5.722;2023-03-31T19:25:29;4.15;;;1.33;;
32172;SDS011;18679;45.190;5.722;2023-03-31T19:28:30;11.57;;;2.95;;
32172;SDS011;18679;45.190;5.722;2023-03-31T19:31:31;5.57;;;1.50;;
32172;SDS011;18679;45.190;5.722;2023-03-31T19:34:37;5.43;;;1.50;;
32172;SDS011;18679;45.190;5.722;2023-03-31T19:37:38;11.38;;;1.67;;
32172;SDS011;18679;45.190;5.722;2023-03-31T19:40:39;4.60;;;1.40;;
32172;SDS011;18679;45.190;5.722;2023-03-31T19:43:41;3.17;;;1.17;;
32172;SDS011;18679;45.190;5.722;2023-03-31T19:46:42;6.22;;;1.50;;
32172;SDS011;18679;45.190;5.722;2023-03-31T19:49:43;7.38;;;1.60;;
32172;SDS011;18679;45.190;5.722;2023-03-31T19:52:44;8.27;;;3.10;;
32172;SDS011;18679;45.190;5.722;2023-03-31T19:55:57;6.93;;;2.05;;
32172;SDS011;18679;45.190;5.722;2023-03-31T19:58:59;6.47;;;1.67;;
32172;SDS011;18679;45.190;5.722;2023-03-31T20:02:00;5.15;;;1.50;;
32172;SDS011;18679;45.190;5.722;2023-03-31T20:05:04;12.02;;;1.55;;
32172;SDS011;18679;45.190;5.722;2023-03-31T20:08:05;3.63;;;1.63;;
32172;SDS011;18679;45.190;5.722;2023-03-31T20:11:06;3.80;;;1.40;;
32172;SDS011;18679;45.190;5.722;2023-03-31T20:14:10;6.25;;;1.60;;
32172;SDS011;18679;45.190;5.722;2023-03-31T20:17:11;7.07;;;1.42;;
32172;SDS011;18679;45.190;5.722;2023-03-31T20:20:12;6.30;;;1.30;;
32172;SDS011;18679;45.190;5.722;2023-03-31T20:23:13;6.25;;;1.13;;
32172;SDS011;18679;45.190;5.722;2023-03-31T20:26:15;2.83;;;1.30;;
32172;SDS011;18679;45.190;5.722;2023-03-31T20:29:17;3.72;;;0.95;;
32172;SDS011;18679;45.190;5.722;2023-03-31T20:32:19;2.88;;;1.40;;
32172;SDS011;18679;45.190;5.722;2023-03-31T20:35:19;4.68;;;1.33;;
32172;SDS011;18679;45.190;5.722;2023-03-31T20:38:20;6.10;;;1.48;;
32172;SDS011;18679;45.190;5.722;2023-03-31T20:41:23;4.65;;;1.48;;
32172;SDS011;18679;45.190;5.722;2023-03-31T20:44:25;6.35;;;1.00;;
32172;SDS011;18679;45.190;5.722;2023-03-31T20:47:26;3.63;;;1.23;;
32172;SDS011;18679;45.190;5.722;2023-03-31T20:50:27;4.13;;;1.55;;
32172;SDS011;18679;45.190;5.722;2023-03-31T20:53:31;3.22;;;1.13;;
32172;SDS011;18679;45.190;5.722;2023-03-31T20:56:35;3.70;;;1.52;;
32172;SDS011;18679;45.190;5.722;2023-03-31T20:59:37;7.32;;;1.25;;
32172;SDS011;18679;45.190;5.722;2023-03-31T21:02:38;5.22;;;1.15;;
32172;SDS011;18679;45.190;5.722;2023-03-31T21:05:43;2.20;;;0.80;;
32172;SDS011;18679;45.190;5.722;2023-03-31T21:08:49;2.42;;;1.10;;
32172;SDS011;18679;45.190;5.722;2023-03-31T21:11:51;1.30;;;1.00;;
32172;SDS011;18679;45.190;5.722;2023-03-31T21:14:52;3.70;;;1.10;;
32172;SDS011;18679;45.190;5.722;2023-03-31T21:17:54;6.13;;;1.50;;
32172;SDS011;18679;45.190;5.722;2023-03-31T21:20:56;4.53;;;0.90;;
32172;SDS011;18679;45.190;5.722;2023-03-31T21:23:58;3.05;;;1.00;;